Terminal Aerodrome Forecast
Issued by NWS Central Illinois

Home | Current Version | Previous Version | Text Only | Print | Product List | Glossary On
Versions: 1 2 3 4 5 6 7 8 9 10 11 12 13 14 15 16 17 18
000
FTUS43 KILX 252329
TAFPIA
TAF
KPIA 252329Z 2600/2624 20014KT P6SM BKN120
     FM260200 18008KT P6SM BKN120
     FM261100 19009KT P6SM VCTS SCT050CB BKN200
     FM261400 21012KT P6SM SCT050
     FM261800 20014KT P6SM VCTS BKN050CB=

USA.gov is the U.S. government's official web portal to all federal, state and local government web resources and services.